AGB weather

Augsburg Airport
Augsburg, Bavaria, Germany

Public forecast

Using degrees Celsius for public forecast. Weather courtesy of forecast.io.

Current aviation weather report (METAR) for Augsburg Airport

Retrieved 2020/05/30 08:20 UTC (18 minutes ago):

EDMA 300820Z 04004KT 010V070 CAVOK 12/05 Q1021

Aviation forecast (TAF) for Augsburg Airport

Forecast is more than 12 hours old.

Retrieved 2009/12/02 06:00 UTC (10 years ago):

TAF COR EDMA 020600Z 0206/0220 VRB03KT 3000 BR SCT004 PROB40 TEMPO 0206/0208 0600 FG VV002 BECMG 0208/0210 9999